createdAt,value
2017-11-25T00:00:08.806Z,6.70
2017-11-25T00:02:34.976Z,6.70
2017-11-25T00:05:01.192Z,6.70
2017-11-25T00:07:27.468Z,6.70
2017-11-25T00:09:53.732Z,6.70
2017-11-25T00:12:20.600Z,6.70
2017-11-25T00:14:46.840Z,6.70
2017-11-25T00:17:13.072Z,6.70
2017-11-25T00:19:39.237Z,6.70
2017-11-25T00:22:05.464Z,6.70
2017-11-25T00:24:32.405Z,6.60
2017-11-25T00:26:59.409Z,6.60
2017-11-25T00:29:25.720Z,6.60
2017-11-25T00:31:51.872Z,6.50
2017-11-25T00:34:18.036Z,6.50
2017-11-25T00:36:45.069Z,6.50
2017-11-25T00:39:11.216Z,6.50
2017-11-25T00:41:38.301Z,6.50
2017-11-25T00:44:04.462Z,6.40
2017-11-25T00:46:30.678Z,6.50
2017-11-25T00:48:56.925Z,6.50
2017-11-25T00:51:23.096Z,6.40
2017-11-25T00:53:49.351Z,6.40
2017-11-25T00:56:15.627Z,6.40
2017-11-25T00:58:42.547Z,6.40
2017-11-25T01:01:08.781Z,6.40
2017-11-25T01:03:34.936Z,6.40
2017-11-25T01:06:01.149Z,6.40
2017-11-25T01:08:28.055Z,6.50
2017-11-25T01:10:54.222Z,6.50
2017-11-25T01:13:21.218Z,6.50
2017-11-25T01:15:47.381Z,6.50
2017-11-25T01:18:14.456Z,6.50
2017-11-25T01:20:40.615Z,6.50
2017-11-25T01:23:06.814Z,6.50
2017-11-25T01:25:33.031Z,6.50
2017-11-25T01:27:59.237Z,6.50
2017-11-25T01:30:26.235Z,6.50
2017-11-25T01:32:52.449Z,6.40
2017-11-25T01:35:18.673Z,6.40
2017-11-25T01:37:44.804Z,6.40
2017-11-25T01:40:11.003Z,6.40
2017-11-25T01:42:37.272Z,6.40
2017-11-25T01:45:03.382Z,6.50
2017-11-25T01:47:29.682Z,6.50
2017-11-25T01:49:55.819Z,6.50
2017-11-25T01:52:21.972Z,6.50
2017-11-25T01:54:48.263Z,6.50
2017-11-25T01:57:14.500Z,6.50
2017-11-25T01:59:40.670Z,6.50
2017-11-25T02:02:06.855Z,6.60
2017-11-25T02:04:33.091Z,6.60
2017-11-25T02:06:59.336Z,6.60
2017-11-25T02:09:25.620Z,6.70
2017-11-25T02:11:52.577Z,6.70
2017-11-25T02:14:18.699Z,6.60
2017-11-25T02:16:44.895Z,6.60
2017-11-25T02:19:11.119Z,6.60
2017-11-25T02:21:38.076Z,6.60
2017-11-25T02:24:05.077Z,6.60
2017-11-25T02:26:31.315Z,6.60
2017-11-25T02:28:57.615Z,6.60
2017-11-25T02:31:23.933Z,6.60
2017-11-25T02:33:50.156Z,6.60
2017-11-25T02:36:16.309Z,6.70
2017-11-25T02:38:42.443Z,6.70
2017-11-25T02:41:08.627Z,6.70
2017-11-25T02:43:34.885Z,6.70
2017-11-25T02:46:01.106Z,6.70
2017-11-25T02:48:27.334Z,6.70
2017-11-25T02:50:53.489Z,6.70
2017-11-25T02:53:19.881Z,6.60
2017-11-25T02:55:46.188Z,6.60
2017-11-25T02:58:12.352Z,6.60
2017-11-25T03:00:38.625Z,6.60
2017-11-25T03:03:05.553Z,6.70
2017-11-25T03:05:31.736Z,6.70
2017-11-25T03:07:57.922Z,6.70
2017-11-25T03:10:24.856Z,6.80
2017-11-25T03:12:51.030Z,6.80
2017-11-25T03:15:17.246Z,6.90
2017-11-25T03:17:43.500Z,6.90
2017-11-25T03:20:09.700Z,6.90
2017-11-25T03:22:35.824Z,7.00
2017-11-25T03:25:02.002Z,6.90
2017-11-25T03:27:28.272Z,6.90
2017-11-25T03:29:54.478Z,6.90
2017-11-25T03:32:21.460Z,7.00
2017-11-25T03:34:47.640Z,7.00
2017-11-25T03:37:13.786Z,7.10
2017-11-25T03:39:40.039Z,7.10
2017-11-25T03:42:06.222Z,7.20
2017-11-25T03:44:33.106Z,7.20
2017-11-25T03:46:59.273Z,7.20
2017-11-25T03:49:25.502Z,7.20
2017-11-25T03:51:51.763Z,7.20
2017-11-25T03:54:17.993Z,7.10
2017-11-25T03:56:44.165Z,7.10
2017-11-25T03:59:10.398Z,7.10
2017-11-25T04:01:36.584Z,7.00
2017-11-25T04:04:02.750Z,7.00
2017-11-25T04:06:28.956Z,7.10
2017-11-25T04:08:55.238Z,7.10
2017-11-25T04:11:22.179Z,7.00
2017-11-25T04:13:49.215Z,7.00
2017-11-25T04:16:16.103Z,7.00
2017-11-25T04:18:42.277Z,7.00
2017-11-25T04:21:08.546Z,7.00
2017-11-25T04:23:34.763Z,7.00
2017-11-25T04:26:01.037Z,6.90
2017-11-25T04:28:27.199Z,7.00
2017-11-25T04:30:54.181Z,6.90
2017-11-25T04:33:20.545Z,6.90
2017-11-25T04:35:46.699Z,6.90
2017-11-25T04:38:13.663Z,6.80
2017-11-25T04:40:39.826Z,6.80
2017-11-25T04:43:06.092Z,6.90
2017-11-25T04:45:32.984Z,7.00
2017-11-25T04:47:59.139Z,7.00
2017-11-25T04:50:25.566Z,7.00
2017-11-25T04:52:51.848Z,7.00
2017-11-25T04:55:18.085Z,7.10
2017-11-25T04:57:44.304Z,7.10
2017-11-25T05:00:10.722Z,7.10
2017-11-25T05:02:37.646Z,7.10
2017-11-25T05:05:04.572Z,7.10
2017-11-25T05:07:30.734Z,7.10
2017-11-25T05:09:56.892Z,7.10
2017-11-25T05:12:23.072Z,7.00
2017-11-25T05:14:50.010Z,7.00
2017-11-25T05:17:16.986Z,7.10
2017-11-25T05:19:43.321Z,7.00
2017-11-25T05:22:09.471Z,7.00
2017-11-25T05:24:35.650Z,7.00
2017-11-25T05:27:02.050Z,7.00
2017-11-25T05:29:28.310Z,7.00
2017-11-25T05:31:54.494Z,7.00
2017-11-25T05:34:20.690Z,7.00
2017-11-25T05:36:46.813Z,7.00
2017-11-25T05:39:13.005Z,7.00
2017-11-25T05:41:39.921Z,6.90
2017-11-25T05:44:06.117Z,6.90
2017-11-25T05:46:32.297Z,6.90
2017-11-25T05:48:59.238Z,6.90
2017-11-25T05:51:26.181Z,6.90
2017-11-25T05:53:53.154Z,6.90
2017-11-25T05:56:19.321Z,6.90
2017-11-25T05:58:45.474Z,6.90
2017-11-25T06:01:12.522Z,6.90
2017-11-25T06:03:39.441Z,6.90
2017-11-25T06:06:05.580Z,6.80
2017-11-25T06:08:32.540Z,6.80
2017-11-25T06:10:59.470Z,6.80
2017-11-25T06:13:25.574Z,6.80
2017-11-25T06:15:51.752Z,6.80
2017-11-25T06:18:17.919Z,6.80
2017-11-25T06:20:44.177Z,6.80
2017-11-25T06:23:11.063Z,6.90
2017-11-25T06:25:37.305Z,6.80
2017-11-25T06:28:03.537Z,6.80
2017-11-25T06:30:29.696Z,6.80
2017-11-25T06:32:56.655Z,6.80
2017-11-25T06:35:23.650Z,6.70
2017-11-25T06:37:49.862Z,6.70
2017-11-25T06:40:16.188Z,6.70
2017-11-25T06:42:42.380Z,6.70
2017-11-25T06:45:09.266Z,6.70
2017-11-25T06:47:35.732Z,6.60
2017-11-25T06:50:01.946Z,6.60
2017-11-25T06:52:28.151Z,6.60
2017-11-25T06:54:54.420Z,6.60
2017-11-25T06:57:20.560Z,6.60
2017-11-25T06:59:47.517Z,6.60
2017-11-25T07:02:13.762Z,6.60
2017-11-25T07:04:40.026Z,6.60
2017-11-25T07:07:06.265Z,6.60
2017-11-25T07:09:32.529Z,6.60
2017-11-25T07:11:58.877Z,6.50
2017-11-25T07:14:25.303Z,6.50
2017-11-25T07:16:51.474Z,6.50
2017-11-25T07:19:17.577Z,6.40
2017-11-25T07:21:43.776Z,6.50
2017-11-25T07:24:09.985Z,6.50
2017-11-25T07:26:37.000Z,6.40
2017-11-25T07:29:03.205Z,6.40
2017-11-25T07:31:29.548Z,6.40
2017-11-25T07:33:55.725Z,6.40
2017-11-25T07:36:21.860Z,6.40
2017-11-25T07:38:48.155Z,6.40
2017-11-25T07:41:15.122Z,6.40
2017-11-25T07:43:41.316Z,6.30
2017-11-25T07:46:07.570Z,6.40
2017-11-25T07:48:33.757Z,6.40
2017-11-25T07:51:00.023Z,6.40
2017-11-25T07:53:26.287Z,6.40
2017-11-25T07:55:52.478Z,6.40
2017-11-25T07:58:18.786Z,6.40
2017-11-25T08:00:45.714Z,6.30
2017-11-25T08:03:11.980Z,6.30
2017-11-25T08:05:38.292Z,6.30
2017-11-25T08:08:04.445Z,6.30
2017-11-25T08:10:30.683Z,6.30
2017-11-25T08:12:56.870Z,6.30
2017-11-25T08:15:23.917Z,6.20
2017-11-25T08:17:51.052Z,6.20
2017-11-25T08:20:18.049Z,6.20
2017-11-25T08:22:44.306Z,6.20
2017-11-25T08:25:10.593Z,6.20
2017-11-25T08:27:36.774Z,6.20
2017-11-25T08:30:03.110Z,6.20
2017-11-25T08:32:29.415Z,6.20
2017-11-25T08:34:55.573Z,6.20
2017-11-25T08:37:22.500Z,6.20
2017-11-25T08:39:48.740Z,6.10
2017-11-25T08:42:14.899Z,6.20
2017-11-25T08:44:41.097Z,6.10
2017-11-25T08:47:07.980Z,6.10
2017-11-25T08:49:34.222Z,6.10
2017-11-25T08:52:00.500Z,6.10
2017-11-25T08:54:27.394Z,6.10
2017-11-25T08:56:53.494Z,6.10
2017-11-25T08:59:19.644Z,6.10
2017-11-25T09:01:45.904Z,6.10
2017-11-25T09:04:12.803Z,6.10
2017-11-25T09:06:38.994Z,6.10
2017-11-25T09:09:05.896Z,6.10
2017-11-25T09:11:32.054Z,6.10
2017-11-25T09:13:59.339Z,6.00
2017-11-25T09:16:25.464Z,6.00
2017-11-25T09:18:51.724Z,6.00
2017-11-25T09:21:18.875Z,6.00
2017-11-25T09:23:45.135Z,6.00
2017-11-25T09:26:12.191Z,6.00
2017-11-25T09:28:38.552Z,5.90
2017-11-25T09:31:04.841Z,5.90
2017-11-25T09:33:31.849Z,5.90
2017-11-25T09:35:58.033Z,5.90
2017-11-25T09:38:24.248Z,5.90
2017-11-25T09:40:50.483Z,5.90
2017-11-25T09:43:16.689Z,5.90
2017-11-25T09:45:43.623Z,5.80
2017-11-25T09:48:10.626Z,5.80
2017-11-25T09:50:36.841Z,5.80
2017-11-25T09:53:03.033Z,5.80
2017-11-25T09:55:30.015Z,5.80
2017-11-25T09:57:56.259Z,5.80
2017-11-25T10:00:22.485Z,5.80
2017-11-25T10:02:48.725Z,5.80
2017-11-25T10:05:14.938Z,5.80
2017-11-25T10:07:41.149Z,5.80
2017-11-25T10:10:07.456Z,5.90
2017-11-25T10:12:33.965Z,5.90
2017-11-25T10:15:00.888Z,5.90
2017-11-25T10:17:27.102Z,5.90
2017-11-25T10:19:53.318Z,5.90
2017-11-25T10:22:19.523Z,6.00
2017-11-25T10:24:45.658Z,6.00
2017-11-25T10:27:11.932Z,6.00
2017-11-25T10:29:38.177Z,6.10
2017-11-25T10:32:05.114Z,6.20
2017-11-25T10:34:32.079Z,6.20
2017-11-25T10:36:58.359Z,6.20
2017-11-25T10:39:24.736Z,6.20
2017-11-25T10:41:50.944Z,6.20
2017-11-25T10:44:17.932Z,6.30
2017-11-25T10:46:44.114Z,6.30
2017-11-25T10:49:11.096Z,6.30
2017-11-25T10:51:37.517Z,6.30
2017-11-25T10:54:03.724Z,6.30
2017-11-25T10:56:30.585Z,6.40
2017-11-25T10:58:56.858Z,6.30
2017-11-25T11:01:23.225Z,6.40
2017-11-25T11:03:50.220Z,6.30
2017-11-25T11:06:16.465Z,6.30
2017-11-25T11:08:42.681Z,6.30
2017-11-25T11:11:08.916Z,6.30
2017-11-25T11:13:35.230Z,6.30
2017-11-25T11:16:01.380Z,6.30
2017-11-25T11:18:27.778Z,6.30
2017-11-25T11:20:53.974Z,6.30
2017-11-25T11:23:20.372Z,6.30
2017-11-25T11:25:46.587Z,6.30
2017-11-25T11:28:12.936Z,6.30
2017-11-25T11:30:40.285Z,6.30
2017-11-25T11:33:06.487Z,6.30
2017-11-25T11:35:32.696Z,6.30
2017-11-25T11:37:58.912Z,6.30
2017-11-25T11:40:25.143Z,6.30
2017-11-25T11:42:51.321Z,6.30
2017-11-25T11:45:17.548Z,6.40
2017-11-25T11:47:43.724Z,6.40
2017-11-25T11:50:10.061Z,6.40
2017-11-25T11:52:36.304Z,6.40
2017-11-25T11:55:03.022Z,6.40
2017-11-25T11:57:29.240Z,6.30
2017-11-25T11:59:55.490Z,6.30
2017-11-25T12:02:21.695Z,6.30
2017-11-25T12:04:48.033Z,6.20
2017-11-25T12:07:14.186Z,6.20
2017-11-25T12:09:40.539Z,6.20
2017-11-25T12:12:07.477Z,6.20
2017-11-25T12:14:33.815Z,6.10
2017-11-25T12:17:00.687Z,6.20
2017-11-25T12:19:26.926Z,6.20
2017-11-25T12:21:53.064Z,6.20
2017-11-25T12:24:19.272Z,6.10
2017-11-25T12:26:45.468Z,6.10
2017-11-25T12:29:12.545Z,6.20
2017-11-25T12:31:38.741Z,6.20
2017-11-25T12:34:05.087Z,6.10
2017-11-25T12:36:31.276Z,6.10
2017-11-25T12:38:57.587Z,6.10
2017-11-25T12:41:23.754Z,6.10
2017-11-25T12:43:49.983Z,6.10
2017-11-25T12:46:16.873Z,6.10
2017-11-25T12:48:43.809Z,6.10
2017-11-25T12:51:10.112Z,6.10
2017-11-25T12:53:36.347Z,6.10
2017-11-25T12:56:02.623Z,6.10
2017-11-25T12:58:28.867Z,6.20
2017-11-25T13:00:55.989Z,6.20
2017-11-25T13:03:22.317Z,6.10
2017-11-25T13:05:48.494Z,6.10
2017-11-25T13:08:14.685Z,6.10
2017-11-25T13:10:40.837Z,6.00
2017-11-25T13:13:07.121Z,6.00
2017-11-25T13:15:33.287Z,6.00
2017-11-25T13:17:59.430Z,6.00
2017-11-25T13:20:25.821Z,5.90
2017-11-25T13:22:52.811Z,5.40
2017-11-25T13:25:19.039Z,5.40
2017-11-25T13:27:45.194Z,5.30
2017-11-25T13:30:11.498Z,5.20
2017-11-25T13:32:37.757Z,4.90
2017-11-25T13:35:04.066Z,4.80
2017-11-25T13:37:30.209Z,4.60
2017-11-25T13:39:56.542Z,4.60
2017-11-25T13:42:22.747Z,4.50
2017-11-25T13:44:49.033Z,4.40
2017-11-25T13:47:16.024Z,4.30
2017-11-25T13:49:42.227Z,4.30
2017-11-25T13:52:08.570Z,4.30
2017-11-25T13:54:34.799Z,4.30
2017-11-25T13:57:01.034Z,4.20
2017-11-25T13:59:27.270Z,4.20
2017-11-25T14:01:53.432Z,4.10
2017-11-25T14:04:20.439Z,3.90
2017-11-25T14:06:46.841Z,3.90
2017-11-25T14:09:13.122Z,3.80
2017-11-25T14:11:39.425Z,3.80
2017-11-25T14:14:05.726Z,3.70
2017-11-25T14:16:31.948Z,3.70
2017-11-25T14:18:58.268Z,3.60
2017-11-25T14:21:24.506Z,3.60
2017-11-25T14:23:50.670Z,3.60
2017-11-25T14:26:16.968Z,3.60
2017-11-25T14:28:43.224Z,3.60
2017-11-25T14:31:09.480Z,3.60
2017-11-25T14:33:36.352Z,3.60
2017-11-25T14:36:02.675Z,3.60
2017-11-25T14:38:28.951Z,3.60
2017-11-25T14:40:55.285Z,3.50
2017-11-25T14:43:21.582Z,3.50
2017-11-25T14:45:47.745Z,3.40
2017-11-25T14:48:13.932Z,3.30
2017-11-25T14:50:40.244Z,3.30
2017-11-25T14:53:06.476Z,3.30
2017-11-25T14:55:32.769Z,3.30
2017-11-25T14:57:58.958Z,3.20
2017-11-25T15:00:25.107Z,3.10
2017-11-25T15:02:51.328Z,3.00
2017-11-25T15:05:17.488Z,2.90
2017-11-25T15:07:44.405Z,2.80
2017-11-25T15:10:10.561Z,2.80
2017-11-25T15:12:36.762Z,2.70
2017-11-25T15:15:03.299Z,2.70
2017-11-25T15:17:30.281Z,2.60
2017-11-25T15:19:56.651Z,2.60
2017-11-25T15:22:22.914Z,2.60
2017-11-25T15:24:49.878Z,2.50
2017-11-25T15:27:16.100Z,2.50
2017-11-25T15:29:42.348Z,2.50
2017-11-25T15:32:08.595Z,2.40
2017-11-25T15:34:34.860Z,2.40
2017-11-25T15:37:01.839Z,2.30
2017-11-25T15:39:28.087Z,2.30
2017-11-25T15:41:54.262Z,2.30
2017-11-25T15:44:21.189Z,2.30
2017-11-25T15:46:47.419Z,2.20
2017-11-25T15:49:13.653Z,2.30
2017-11-25T15:51:40.523Z,2.30
2017-11-25T15:54:06.807Z,2.30
2017-11-25T15:56:33.124Z,2.20
2017-11-25T15:58:59.416Z,2.30
2017-11-25T16:01:25.686Z,2.30
2017-11-25T16:03:51.850Z,2.30
2017-11-25T16:06:18.176Z,2.30
2017-11-25T16:08:44.361Z,2.30
2017-11-25T16:11:10.697Z,2.40
2017-11-25T16:13:36.923Z,2.30
2017-11-25T16:16:03.176Z,2.40
2017-11-25T16:18:30.145Z,2.40
2017-11-25T16:20:56.372Z,2.40
2017-11-25T16:23:22.571Z,2.40
2017-11-25T16:25:49.537Z,2.30
2017-11-25T16:28:15.714Z,2.30
2017-11-25T16:30:41.910Z,2.30
2017-11-25T16:33:08.144Z,2.20
2017-11-25T16:35:34.348Z,2.20
2017-11-25T16:38:00.553Z,2.20
2017-11-25T16:40:27.601Z,2.10
2017-11-25T16:42:54.628Z,2.00
2017-11-25T16:45:20.796Z,1.90
2017-11-25T16:47:46.949Z,1.90
2017-11-25T16:50:13.224Z,1.90
2017-11-25T16:52:40.129Z,1.80
2017-11-25T16:55:06.304Z,1.70
2017-11-25T16:57:32.537Z,1.70
2017-11-25T16:59:58.702Z,1.50
2017-11-25T17:02:24.841Z,1.50
2017-11-25T17:04:51.079Z,1.60
2017-11-25T17:07:17.966Z,1.50
2017-11-25T17:09:44.221Z,1.50
2017-11-25T17:12:10.459Z,1.40
2017-11-25T17:14:36.743Z,1.40
2017-11-25T17:17:03.820Z,1.40
2017-11-25T17:19:30.063Z,1.40
2017-11-25T17:21:56.238Z,1.40
2017-11-25T17:24:22.462Z,1.30
2017-11-25T17:26:48.620Z,1.20
2017-11-25T17:29:14.836Z,1.20
2017-11-25T17:31:41.055Z,1.20
2017-11-25T17:34:07.249Z,1.20
2017-11-25T17:36:34.189Z,1.20
2017-11-25T17:39:01.068Z,1.20
2017-11-25T17:41:27.309Z,1.10
2017-11-25T17:43:53.673Z,1.20
2017-11-25T17:46:19.817Z,1.20
2017-11-25T17:48:46.104Z,1.20
2017-11-25T17:51:12.641Z,1.20
2017-11-25T17:53:38.740Z,1.20
2017-11-25T17:56:04.922Z,1.20
2017-11-25T17:58:31.808Z,1.20
2017-11-25T18:00:58.046Z,1.20
2017-11-25T18:03:24.388Z,1.20
2017-11-25T18:05:50.597Z,1.10
2017-11-25T18:08:16.879Z,1.10
2017-11-25T18:10:43.764Z,1.20
2017-11-25T18:13:10.069Z,1.10
2017-11-25T18:15:36.305Z,1.10
2017-11-25T18:18:02.481Z,1.10
2017-11-25T18:20:29.442Z,1.20
2017-11-25T18:22:56.370Z,1.20
2017-11-25T18:25:22.614Z,1.20
2017-11-25T18:27:49.685Z,1.10
2017-11-25T18:30:15.964Z,1.10
2017-11-25T18:32:42.279Z,1.10
2017-11-25T18:35:08.476Z,1.10
2017-11-25T18:37:34.818Z,1.00
2017-11-25T18:40:01.206Z,1.00
2017-11-25T18:42:27.454Z,1.00
2017-11-25T18:44:53.676Z,1.00
2017-11-25T18:47:19.916Z,1.00
2017-11-25T18:49:46.165Z,1.00
2017-11-25T18:52:12.380Z,1.00
2017-11-25T18:54:38.589Z,1.00
2017-11-25T18:57:04.792Z,0.90
2017-11-25T18:59:31.751Z,0.90
2017-11-25T19:01:57.972Z,0.90
2017-11-25T19:04:24.969Z,0.90
2017-11-25T19:06:51.972Z,0.80
2017-11-25T19:09:19.164Z,0.80
2017-11-25T19:11:45.392Z,0.80
2017-11-25T19:14:11.655Z,0.80
2017-11-25T19:16:38.554Z,0.70
2017-11-25T19:19:04.860Z,0.70
2017-11-25T19:21:31.136Z,0.70
2017-11-25T19:23:57.325Z,0.60
2017-11-25T19:26:23.470Z,0.60
2017-11-25T19:28:49.730Z,0.60
2017-11-25T19:31:16.641Z,0.50
2017-11-25T19:33:43.752Z,0.50
2017-11-25T19:36:09.985Z,0.50
2017-11-25T19:38:36.215Z,0.50
2017-11-25T19:41:02.390Z,0.50
2017-11-25T19:43:29.376Z,0.40
2017-11-25T19:45:55.650Z,0.40
2017-11-25T19:48:22.484Z,0.40
2017-11-25T19:50:48.769Z,0.40
2017-11-25T19:53:14.900Z,0.40
2017-11-25T19:55:41.083Z,0.40
2017-11-25T19:58:08.004Z,0.40
2017-11-25T20:00:34.250Z,0.40
2017-11-25T20:03:00.538Z,0.40
2017-11-25T20:05:26.745Z,0.40
2017-11-25T20:07:52.965Z,0.40
2017-11-25T20:10:19.220Z,0.40
2017-11-25T20:12:45.412Z,0.40
2017-11-25T20:15:11.920Z,0.40
2017-11-25T20:17:38.078Z,0.50
2017-11-25T20:20:04.306Z,0.50
2017-11-25T20:22:30.615Z,0.50
2017-11-25T20:24:57.597Z,0.50
2017-11-25T20:27:23.801Z,0.50
2017-11-25T20:29:50.115Z,0.50
2017-11-25T20:32:17.072Z,0.50
2017-11-25T20:34:43.317Z,0.50
2017-11-25T20:37:09.506Z,0.60
2017-11-25T20:39:36.564Z,0.60
2017-11-25T20:42:02.767Z,0.60
2017-11-25T20:44:29.010Z,0.70
2017-11-25T20:46:55.953Z,0.60
2017-11-25T20:49:22.902Z,0.60
2017-11-25T20:51:49.834Z,0.70
2017-11-25T20:54:16.783Z,0.70
2017-11-25T20:56:43.729Z,0.60
2017-11-25T20:59:10.655Z,0.60
2017-11-25T21:01:37.591Z,0.60
2017-11-25T21:04:03.902Z,0.50
2017-11-25T21:06:30.034Z,0.50
2017-11-25T21:08:57.050Z,0.50
2017-11-25T21:11:23.297Z,0.40
2017-11-25T21:13:49.631Z,0.50
2017-11-25T21:16:15.873Z,0.40
2017-11-25T21:18:42.057Z,0.40
2017-11-25T21:21:08.243Z,0.40
2017-11-25T21:23:35.264Z,0.30
2017-11-25T21:26:01.404Z,0.30
2017-11-25T21:28:27.593Z,0.30
2017-11-25T21:30:53.824Z,0.20
2017-11-25T21:33:20.100Z,0.20
2017-11-25T21:35:46.224Z,0.10
2017-11-25T21:38:13.112Z,0.00
2017-11-25T21:40:39.467Z,-0.10
2017-11-25T21:43:05.687Z,-0.10
2017-11-25T21:45:31.902Z,-0.20
2017-11-25T21:47:58.885Z,-0.20
2017-11-25T21:50:25.866Z,-0.20
2017-11-25T21:52:52.080Z,-0.30
2017-11-25T21:55:18.268Z,-0.30
2017-11-25T21:57:44.496Z,-0.30
2017-11-25T22:00:10.746Z,-0.40
2017-11-25T22:02:37.030Z,-0.40
2017-11-25T22:05:03.291Z,-0.40
2017-11-25T22:07:30.200Z,-0.50
2017-11-25T22:09:56.446Z,-0.50
2017-11-25T22:12:22.735Z,-0.50
2017-11-25T22:14:49.092Z,-0.50
2017-11-25T22:17:15.235Z,-0.50
2017-11-25T22:19:41.500Z,-0.60
2017-11-25T22:22:07.695Z,-0.60
2017-11-25T22:24:34.667Z,-0.50
2017-11-25T22:27:00.954Z,-0.50
2017-11-25T22:29:27.174Z,-0.40
2017-11-25T22:31:53.511Z,-0.30
2017-11-25T22:34:19.801Z,-0.30
2017-11-25T22:36:46.057Z,-0.20
2017-11-25T22:39:12.360Z,-0.20
2017-11-25T22:41:38.645Z,-0.20
2017-11-25T22:44:05.503Z,-0.10
2017-11-25T22:46:32.665Z,-0.10
2017-11-25T22:48:58.937Z,-0.10
2017-11-25T22:51:25.224Z,-0.10
2017-11-25T22:53:51.424Z,-0.10
2017-11-25T22:56:17.664Z,-0.10
2017-11-25T22:58:43.785Z,-0.20
2017-11-25T23:01:10.033Z,-0.20
2017-11-25T23:03:36.247Z,-0.30
2017-11-25T23:06:08.659Z,-0.20
2017-11-25T23:08:34.891Z,-0.20
2017-11-25T23:11:01.068Z,-0.10
2017-11-25T23:13:27.326Z,-0.10
2017-11-25T23:15:53.492Z,-0.10
2017-11-25T23:18:20.423Z,0.00
2017-11-25T23:20:46.672Z,0.00
2017-11-25T23:23:13.705Z,0.00
2017-11-25T23:25:40.660Z,0.10
2017-11-25T23:28:07.626Z,0.10
2017-11-25T23:30:33.871Z,0.10
2017-11-25T23:33:00.170Z,0.10
2017-11-25T23:35:26.353Z,0.00
2017-11-25T23:37:52.707Z,0.10
2017-11-25T23:40:18.968Z,0.10
2017-11-25T23:42:45.154Z,0.20
2017-11-25T23:45:12.104Z,0.20
2017-11-25T23:47:39.072Z,0.20
2017-11-25T23:50:05.431Z,0.20
2017-11-25T23:52:32.524Z,0.30
2017-11-25T23:54:59.444Z,0.50
2017-11-25T23:57:25.719Z,0.50
2017-11-25T23:59:52.052Z,0.50
